sensor_id;sensor_type;location;lat;lon;timestamp;temperature;humidity
4501;DHT22;2263;54.654;9.410;2023-07-29T00:02:13;21.30;80.50
4501;DHT22;2263;54.654;9.410;2023-07-29T00:04:41;21.30;80.70
4501;DHT22;2263;54.654;9.410;2023-07-29T00:07:09;21.30;80.70
4501;DHT22;2263;54.654;9.410;2023-07-29T00:09:37;21.30;80.80
4501;DHT22;2263;54.654;9.410;2023-07-29T00:12:05;21.30;80.70
4501;DHT22;2263;54.654;9.410;2023-07-29T00:14:33;21.30;80.90
4501;DHT22;2263;54.654;9.410;2023-07-29T00:17:00;21.30;80.70
4501;DHT22;2263;54.654;9.410;2023-07-29T00:19:28;21.30;80.90
4501;DHT22;2263;54.654;9.410;2023-07-29T00:21:56;21.20;80.70
4501;DHT22;2263;54.654;9.410;2023-07-29T00:24:23;21.20;80.80
4501;DHT22;2263;54.654;9.410;2023-07-29T00:26:51;21.20;80.80
4501;DHT22;2263;54.654;9.410;2023-07-29T00:29:18;21.20;81.00
4501;DHT22;2263;54.654;9.410;2023-07-29T00:31:49;21.20;81.00
4501;DHT22;2263;54.654;9.410;2023-07-29T00:34:16;21.10;81.70
4501;DHT22;2263;54.654;9.410;2023-07-29T00:36:46;21.20;81.10
4501;DHT22;2263;54.654;9.410;2023-07-29T00:39:14;21.20;81.10
4501;DHT22;2263;54.654;9.410;2023-07-29T00:41:41;21.10;81.20
4501;DHT22;2263;54.654;9.410;2023-07-29T00:44:09;21.20;81.30
4501;DHT22;2263;54.654;9.410;2023-07-29T00:46:38;21.10;81.10
4501;DHT22;2263;54.654;9.410;2023-07-29T00:49:08;21.10;81.20
4501;DHT22;2263;54.654;9.410;2023-07-29T00:51:36;21.10;81.40
4501;DHT22;2263;54.654;9.410;2023-07-29T00:54:03;21.10;81.40
4501;DHT22;2263;54.654;9.410;2023-07-29T00:56:31;21.10;81.40
4501;DHT22;2263;54.654;9.410;2023-07-29T00:58:59;21.10;81.40
4501;DHT22;2263;54.654;9.410;2023-07-29T01:01:29;21.10;81.40
4501;DHT22;2263;54.654;9.410;2023-07-29T01:03:57;21.00;81.20
4501;DHT22;2263;54.654;9.410;2023-07-29T01:12:35;21.00;81.30
4501;DHT22;2263;54.654;9.410;2023-07-29T01:14:42;21.00;81.00
4501;DHT22;2263;54.654;9.410;2023-07-29T01:17:25;21.00;81.00
4501;DHT22;2263;54.654;9.410;2023-07-29T01:20:01;21.00;81.30
4501;DHT22;2263;54.654;9.410;2023-07-29T01:22:35;21.00;81.00
4501;DHT22;2263;54.654;9.410;2023-07-29T01:25:04;20.90;81.00
4501;DHT22;2263;54.654;9.410;2023-07-29T01:27:32;20.90;81.20
4501;DHT22;2263;54.654;9.410;2023-07-29T01:30:01;20.90;80.80
4501;DHT22;2263;54.654;9.410;2023-07-29T01:35:33;20.90;81.20
4501;DHT22;2263;54.654;9.410;2023-07-29T01:38:13;20.80;81.20
4501;DHT22;2263;54.654;9.410;2023-07-29T01:40:42;20.80;81.50
4501;DHT22;2263;54.654;9.410;2023-07-29T01:43:11;20.80;81.30
4501;DHT22;2263;54.654;9.410;2023-07-29T01:45:39;20.90;81.50
4501;DHT22;2263;54.654;9.410;2023-07-29T01:48:07;20.80;81.50
4501;DHT22;2263;54.654;9.410;2023-07-29T01:50:35;20.80;81.50
4501;DHT22;2263;54.654;9.410;2023-07-29T01:53:03;20.80;81.20
4501;DHT22;2263;54.654;9.410;2023-07-29T01:55:31;20.80;81.50
4501;DHT22;2263;54.654;9.410;2023-07-29T01:57:58;20.80;81.70
4501;DHT22;2263;54.654;9.410;2023-07-29T02:00:26;20.80;81.40
4501;DHT22;2263;54.654;9.410;2023-07-29T02:02:53;20.80;81.70
4501;DHT22;2263;54.654;9.410;2023-07-29T02:05:21;20.80;81.60
4501;DHT22;2263;54.654;9.410;2023-07-29T02:07:49;20.70;81.50
4501;DHT22;2263;54.654;9.410;2023-07-29T02:10:17;20.70;81.60
4501;DHT22;2263;54.654;9.410;2023-07-29T02:12:44;20.70;81.80
4501;DHT22;2263;54.654;9.410;2023-07-29T02:15:12;20.70;81.70
4501;DHT22;2263;54.654;9.410;2023-07-29T02:17:42;20.70;81.60
4501;DHT22;2263;54.654;9.410;2023-07-29T02:20:10;20.70;81.70
4501;DHT22;2263;54.654;9.410;2023-07-29T02:22:38;20.70;82.30
4501;DHT22;2263;54.654;9.410;2023-07-29T02:25:05;20.70;81.30
4501;DHT22;2263;54.654;9.410;2023-07-29T02:27:33;20.70;81.80
4501;DHT22;2263;54.654;9.410;2023-07-29T02:30:01;20.70;81.80
4501;DHT22;2263;54.654;9.410;2023-07-29T02:32:29;20.60;82.00
4501;DHT22;2263;54.654;9.410;2023-07-29T02:34:57;20.60;82.00
4501;DHT22;2263;54.654;9.410;2023-07-29T02:37:25;20.60;81.90
4501;DHT22;2263;54.654;9.410;2023-07-29T02:39:52;20.60;81.80
4501;DHT22;2263;54.654;9.410;2023-07-29T02:42:20;20.60;81.90
4501;DHT22;2263;54.654;9.410;2023-07-29T02:44:47;20.60;81.90
4501;DHT22;2263;54.654;9.410;2023-07-29T02:47:18;20.50;81.90
4501;DHT22;2263;54.654;9.410;2023-07-29T02:49:46;20.50;81.80
4501;DHT22;2263;54.654;9.410;2023-07-29T02:52:13;20.50;81.90
4501;DHT22;2263;54.654;9.410;2023-07-29T02:54:41;20.60;82.20
4501;DHT22;2263;54.654;9.410;2023-07-29T02:57:08;20.50;81.80
4501;DHT22;2263;54.654;9.410;2023-07-29T02:59:36;20.50;82.00
4501;DHT22;2263;54.654;9.410;2023-07-29T03:02:04;20.50;82.10
4501;DHT22;2263;54.654;9.410;2023-07-29T03:04:32;20.50;81.90
4501;DHT22;2263;54.654;9.410;2023-07-29T03:07:00;20.50;82.10
4501;DHT22;2263;54.654;9.410;2023-07-29T03:09:28;20.50;82.10
4501;DHT22;2263;54.654;9.410;2023-07-29T03:11:56;20.50;82.00
4501;DHT22;2263;54.654;9.410;2023-07-29T03:14:24;20.40;82.00
4501;DHT22;2263;54.654;9.410;2023-07-29T03:16:51;20.40;82.20
4501;DHT22;2263;54.654;9.410;2023-07-29T03:19:19;20.40;82.10
4501;DHT22;2263;54.654;9.410;2023-07-29T03:21:47;20.40;82.30
4501;DHT22;2263;54.654;9.410;2023-07-29T03:24:15;20.40;82.20
4501;DHT22;2263;54.654;9.410;2023-07-29T03:26:42;20.40;81.60
4501;DHT22;2263;54.654;9.410;2023-07-29T03:29:12;20.40;82.00
4501;DHT22;2263;54.654;9.410;2023-07-29T03:31:40;20.40;81.60
4501;DHT22;2263;54.654;9.410;2023-07-29T03:34:07;20.30;81.90
4501;DHT22;2263;54.654;9.410;2023-07-29T03:36:37;20.40;81.80
4501;DHT22;2263;54.654;9.410;2023-07-29T03:39:05;20.30;81.80
4501;DHT22;2263;54.654;9.410;2023-07-29T03:41:32;20.40;82.00
4501;DHT22;2263;54.654;9.410;2023-07-29T03:44:00;20.30;82.00
4501;DHT22;2263;54.654;9.410;2023-07-29T03:46:28;20.40;82.10
4501;DHT22;2263;54.654;9.410;2023-07-29T03:48:57;20.40;82.20
4501;DHT22;2263;54.654;9.410;2023-07-29T03:51:24;20.30;82.00
4501;DHT22;2263;54.654;9.410;2023-07-29T03:53:52;20.30;82.20
4501;DHT22;2263;54.654;9.410;2023-07-29T03:56:20;20.30;82.20
4501;DHT22;2263;54.654;9.410;2023-07-29T03:58:47;20.30;82.10
4501;DHT22;2263;54.654;9.410;2023-07-29T04:01:16;20.30;82.40
4501;DHT22;2263;54.654;9.410;2023-07-29T04:03:45;20.30;82.30
4501;DHT22;2263;54.654;9.410;2023-07-29T04:06:16;20.20;82.20
4501;DHT22;2263;54.654;9.410;2023-07-29T04:08:43;20.20;82.30
4501;DHT22;2263;54.654;9.410;2023-07-29T04:11:11;20.20;82.40
4501;DHT22;2263;54.654;9.410;2023-07-29T04:13:38;20.20;82.20
4501;DHT22;2263;54.654;9.410;2023-07-29T04:16:07;20.20;82.40
4501;DHT22;2263;54.654;9.410;2023-07-29T04:18:34;20.20;82.60
4501;DHT22;2263;54.654;9.410;2023-07-29T04:21:02;20.20;82.10
4501;DHT22;2263;54.654;9.410;2023-07-29T04:23:30;20.20;82.30
4501;DHT22;2263;54.654;9.410;2023-07-29T04:25:57;20.20;82.40
4501;DHT22;2263;54.654;9.410;2023-07-29T04:28:25;20.20;82.30
4501;DHT22;2263;54.654;9.410;2023-07-29T04:30:53;20.10;82.40
4501;DHT22;2263;54.654;9.410;2023-07-29T04:33:22;20.10;82.50
4501;DHT22;2263;54.654;9.410;2023-07-29T04:35:50;20.10;82.60
4501;DHT22;2263;54.654;9.410;2023-07-29T04:38:17;20.20;82.20
4501;DHT22;2263;54.654;9.410;2023-07-29T04:40:45;20.10;82.40
4501;DHT22;2263;54.654;9.410;2023-07-29T04:43:12;20.10;82.50
4501;DHT22;2263;54.654;9.410;2023-07-29T04:45:46;20.10;82.80
4501;DHT22;2263;54.654;9.410;2023-07-29T04:48:13;20.10;82.90
4501;DHT22;2263;54.654;9.410;2023-07-29T04:50:41;20.10;82.90
4501;DHT22;2263;54.654;9.410;2023-07-29T04:53:09;20.10;82.70
4501;DHT22;2263;54.654;9.410;2023-07-29T04:55:37;20.10;82.70
4501;DHT22;2263;54.654;9.410;2023-07-29T04:58:04;20.10;82.70
4501;DHT22;2263;54.654;9.410;2023-07-29T05:00:32;20.10;82.80
4501;DHT22;2263;54.654;9.410;2023-07-29T05:03:01;20.10;83.00
4501;DHT22;2263;54.654;9.410;2023-07-29T05:05:28;20.10;82.70
4501;DHT22;2263;54.654;9.410;2023-07-29T05:07:56;20.00;82.80
4501;DHT22;2263;54.654;9.410;2023-07-29T05:10:24;20.00;82.60
4501;DHT22;2263;54.654;9.410;2023-07-29T05:12:52;20.00;82.90
4501;DHT22;2263;54.654;9.410;2023-07-29T05:15:19;20.00;83.10
4501;DHT22;2263;54.654;9.410;2023-07-29T05:17:47;20.00;83.00
4501;DHT22;2263;54.654;9.410;2023-07-29T05:20:14;20.00;83.10
4501;DHT22;2263;54.654;9.410;2023-07-29T05:22:42;20.00;83.10
4501;DHT22;2263;54.654;9.410;2023-07-29T05:25:10;20.00;83.00
4501;DHT22;2263;54.654;9.410;2023-07-29T05:27:37;20.00;83.20
4501;DHT22;2263;54.654;9.410;2023-07-29T05:30:05;20.00;83.20
4501;DHT22;2263;54.654;9.410;2023-07-29T05:32:33;20.00;83.20
4501;DHT22;2263;54.654;9.410;2023-07-29T05:35:01;20.00;83.20
4501;DHT22;2263;54.654;9.410;2023-07-29T05:37:29;20.00;83.30
4501;DHT22;2263;54.654;9.410;2023-07-29T05:39:57;20.00;83.30
4501;DHT22;2263;54.654;9.410;2023-07-29T05:42:25;20.00;83.20
4501;DHT22;2263;54.654;9.410;2023-07-29T05:44:52;20.00;83.30
4501;DHT22;2263;54.654;9.410;2023-07-29T05:47:20;20.00;83.50
4501;DHT22;2263;54.654;9.410;2023-07-29T05:49:47;20.00;83.50
4501;DHT22;2263;54.654;9.410;2023-07-29T05:52:18;19.90;83.40
4501;DHT22;2263;54.654;9.410;2023-07-29T05:54:46;19.90;83.50
4501;DHT22;2263;54.654;9.410;2023-07-29T05:57:13;20.00;83.40
4501;DHT22;2263;54.654;9.410;2023-07-29T05:59:41;19.90;83.30
4501;DHT22;2263;54.654;9.410;2023-07-29T06:02:09;20.00;84.00
4501;DHT22;2263;54.654;9.410;2023-07-29T06:04:36;20.00;83.50
4501;DHT22;2263;54.654;9.410;2023-07-29T06:07:05;20.00;83.30
4501;DHT22;2263;54.654;9.410;2023-07-29T06:09:32;20.00;83.30
4501;DHT22;2263;54.654;9.410;2023-07-29T06:12:00;20.00;83.20
4501;DHT22;2263;54.654;9.410;2023-07-29T06:14:28;20.00;83.10
4501;DHT22;2263;54.654;9.410;2023-07-29T06:16:55;20.00;83.10
4501;DHT22;2263;54.654;9.410;2023-07-29T06:19:23;20.00;83.00
4501;DHT22;2263;54.654;9.410;2023-07-29T06:21:51;20.00;83.20
4501;DHT22;2263;54.654;9.410;2023-07-29T06:24:22;20.00;83.20
4501;DHT22;2263;54.654;9.410;2023-07-29T06:26:50;20.00;83.20
4501;DHT22;2263;54.654;9.410;2023-07-29T06:29:18;20.00;83.20
4501;DHT22;2263;54.654;9.410;2023-07-29T06:31:45;20.00;83.30
4501;DHT22;2263;54.654;9.410;2023-07-29T06:34:17;20.00;83.30
4501;DHT22;2263;54.654;9.410;2023-07-29T06:36:44;20.10;83.40
4501;DHT22;2263;54.654;9.410;2023-07-29T06:39:12;20.10;83.60
4501;DHT22;2263;54.654;9.410;2023-07-29T06:41:40;20.10;83.60
4501;DHT22;2263;54.654;9.410;2023-07-29T06:44:07;20.10;83.80
4501;DHT22;2263;54.654;9.410;2023-07-29T06:46:35;20.10;83.70
4501;DHT22;2263;54.654;9.410;2023-07-29T06:49:04;20.10;83.70
4501;DHT22;2263;54.654;9.410;2023-07-29T06:51:32;20.10;83.90
4501;DHT22;2263;54.654;9.410;2023-07-29T06:54:02;20.10;83.80
4501;DHT22;2263;54.654;9.410;2023-07-29T06:56:30;20.10;83.90
4501;DHT22;2263;54.654;9.410;2023-07-29T06:58:58;20.10;84.00
4501;DHT22;2263;54.654;9.410;2023-07-29T07:01:25;20.10;84.10
4501;DHT22;2263;54.654;9.410;2023-07-29T07:03:53;20.10;84.40
4501;DHT22;2263;54.654;9.410;2023-07-29T07:06:22;20.10;84.20
4501;DHT22;2263;54.654;9.410;2023-07-29T07:08:52;20.10;84.10
4501;DHT22;2263;54.654;9.410;2023-07-29T07:11:20;20.10;84.30
4501;DHT22;2263;54.654;9.410;2023-07-29T07:13:47;20.10;84.60
4501;DHT22;2263;54.654;9.410;2023-07-29T07:16:15;20.10;84.60
4501;DHT22;2263;54.654;9.410;2023-07-29T07:18:43;20.20;84.70
4501;DHT22;2263;54.654;9.410;2023-07-29T07:21:11;20.20;85.30
4501;DHT22;2263;54.654;9.410;2023-07-29T07:23:39;20.20;84.80
4501;DHT22;2263;54.654;9.410;2023-07-29T07:26:07;20.20;85.00
4501;DHT22;2263;54.654;9.410;2023-07-29T07:28:34;20.20;85.00
4501;DHT22;2263;54.654;9.410;2023-07-29T07:31:02;20.20;84.90
4501;DHT22;2263;54.654;9.410;2023-07-29T07:33:31;20.20;84.90
4501;DHT22;2263;54.654;9.410;2023-07-29T07:36:00;20.10;84.80
4501;DHT22;2263;54.654;9.410;2023-07-29T07:38:30;20.20;84.90
4501;DHT22;2263;54.654;9.410;2023-07-29T07:40:58;20.10;84.80
4501;DHT22;2263;54.654;9.410;2023-07-29T07:43:25;20.10;84.90
4501;DHT22;2263;54.654;9.410;2023-07-29T07:46:01;20.10;84.70
4501;DHT22;2263;54.654;9.410;2023-07-29T07:48:28;20.10;85.20
4501;DHT22;2263;54.654;9.410;2023-07-29T07:50:56;20.10;85.00
4501;DHT22;2263;54.654;9.410;2023-07-29T07:53:24;20.10;85.20
4501;DHT22;2263;54.654;9.410;2023-07-29T07:55:53;20.10;85.20
4501;DHT22;2263;54.654;9.410;2023-07-29T07:58:21;20.10;85.30
4501;DHT22;2263;54.654;9.410;2023-07-29T08:00:49;20.10;85.20
4501;DHT22;2263;54.654;9.410;2023-07-29T08:03:18;20.10;85.20
4501;DHT22;2263;54.654;9.410;2023-07-29T08:05:46;20.10;85.20
4501;DHT22;2263;54.654;9.410;2023-07-29T08:08:14;20.20;85.60
4501;DHT22;2263;54.654;9.410;2023-07-29T08:10:42;20.10;85.80
4501;DHT22;2263;54.654;9.410;2023-07-29T08:13:09;20.20;85.40
4501;DHT22;2263;54.654;9.410;2023-07-29T08:15:37;20.20;85.70
4501;DHT22;2263;54.654;9.410;2023-07-29T08:18:05;20.20;85.70
4501;DHT22;2263;54.654;9.410;2023-07-29T08:20:33;20.20;85.70
4501;DHT22;2263;54.654;9.410;2023-07-29T08:23:00;20.20;85.80
4501;DHT22;2263;54.654;9.410;2023-07-29T08:25:29;20.20;85.70
4501;DHT22;2263;54.654;9.410;2023-07-29T08:27:57;20.10;85.80
4501;DHT22;2263;54.654;9.410;2023-07-29T08:30:25;20.20;86.00
4501;DHT22;2263;54.654;9.410;2023-07-29T08:32:52;20.10;86.20
4501;DHT22;2263;54.654;9.410;2023-07-29T08:35:20;20.10;86.40
4501;DHT22;2263;54.654;9.410;2023-07-29T08:37:48;20.10;86.00
4501;DHT22;2263;54.654;9.410;2023-07-29T08:40:16;20.10;86.10
4501;DHT22;2263;54.654;9.410;2023-07-29T08:42:45;20.10;86.20
4501;DHT22;2263;54.654;9.410;2023-07-29T08:45:17;20.10;86.30
4501;DHT22;2263;54.654;9.410;2023-07-29T08:47:45;20.20;86.50
4501;DHT22;2263;54.654;9.410;2023-07-29T08:50:14;20.10;86.10
4501;DHT22;2263;54.654;9.410;2023-07-29T08:52:42;20.20;86.20
4501;DHT22;2263;54.654;9.410;2023-07-29T08:55:11;20.20;86.30
4501;DHT22;2263;54.654;9.410;2023-07-29T08:57:41;20.20;86.80
4501;DHT22;2263;54.654;9.410;2023-07-29T09:00:10;20.20;87.60
4501;DHT22;2263;54.654;9.410;2023-07-29T09:02:38;20.20;87.20
4501;DHT22;2263;54.654;9.410;2023-07-29T09:05:06;20.20;87.00
4501;DHT22;2263;54.654;9.410;2023-07-29T09:07:36;20.20;90.10
4501;DHT22;2263;54.654;9.410;2023-07-29T09:10:08;20.20;89.20
4501;DHT22;2263;54.654;9.410;2023-07-29T09:12:37;20.20;88.10
4501;DHT22;2263;54.654;9.410;2023-07-29T09:15:05;20.20;88.00
4501;DHT22;2263;54.654;9.410;2023-07-29T09:17:33;20.20;88.00
4501;DHT22;2263;54.654;9.410;2023-07-29T09:20:01;20.20;87.90
4501;DHT22;2263;54.654;9.410;2023-07-29T09:22:30;20.30;88.50
4501;DHT22;2263;54.654;9.410;2023-07-29T09:24:58;20.30;88.40
4501;DHT22;2263;54.654;9.410;2023-07-29T09:27:27;20.40;90.00
4501;DHT22;2263;54.654;9.410;2023-07-29T09:29:55;20.40;89.50
4501;DHT22;2263;54.654;9.410;2023-07-29T09:32:25;20.40;89.20
4501;DHT22;2263;54.654;9.410;2023-07-29T09:34:52;20.40;89.60
4501;DHT22;2263;54.654;9.410;2023-07-29T09:37:24;20.40;89.10
4501;DHT22;2263;54.654;9.410;2023-07-29T09:39:52;20.40;89.00
4501;DHT22;2263;54.654;9.410;2023-07-29T09:42:23;20.40;88.70
4501;DHT22;2263;54.654;9.410;2023-07-29T09:44:51;20.40;89.10
4501;DHT22;2263;54.654;9.410;2023-07-29T09:47:22;20.40;88.90
4501;DHT22;2263;54.654;9.410;2023-07-29T09:49:51;20.40;88.90
4501;DHT22;2263;54.654;9.410;2023-07-29T09:52:20;20.50;89.30
4501;DHT22;2263;54.654;9.410;2023-07-29T09:54:49;20.50;89.20
4501;DHT22;2263;54.654;9.410;2023-07-29T09:57:18;20.50;89.20
4501;DHT22;2263;54.654;9.410;2023-07-29T09:59:56;20.50;89.20
4501;DHT22;2263;54.654;9.410;2023-07-29T10:02:24;20.50;89.30
4501;DHT22;2263;54.654;9.410;2023-07-29T10:04:55;20.60;89.50
4501;DHT22;2263;54.654;9.410;2023-07-29T10:07:24;20.60;89.30
4501;DHT22;2263;54.654;9.410;2023-07-29T10:09:52;20.60;89.90
4501;DHT22;2263;54.654;9.410;2023-07-29T10:12:22;20.60;90.00
4501;DHT22;2263;54.654;9.410;2023-07-29T10:14:50;20.60;89.40
4501;DHT22;2263;54.654;9.410;2023-07-29T10:17:20;20.60;89.20
4501;DHT22;2263;54.654;9.410;2023-07-29T10:19:49;20.60;89.50
4501;DHT22;2263;54.654;9.410;2023-07-29T10:22:20;20.60;89.40
4501;DHT22;2263;54.654;9.410;2023-07-29T10:24:48;20.60;89.20
4501;DHT22;2263;54.654;9.410;2023-07-29T10:27:18;20.60;89.20
4501;DHT22;2263;54.654;9.410;2023-07-29T10:29:46;20.60;89.30
4501;DHT22;2263;54.654;9.410;2023-07-29T10:32:15;20.60;89.20
4501;DHT22;2263;54.654;9.410;2023-07-29T10:34:43;20.60;89.80
4501;DHT22;2263;54.654;9.410;2023-07-29T10:37:11;20.60;89.90
4501;DHT22;2263;54.654;9.410;2023-07-29T10:39:40;20.60;89.80
4501;DHT22;2263;54.654;9.410;2023-07-29T10:42:08;20.70;89.70
4501;DHT22;2263;54.654;9.410;2023-07-29T10:44:56;20.70;89.80
4501;DHT22;2263;54.654;9.410;2023-07-29T10:47:28;20.70;89.80
4501;DHT22;2263;54.654;9.410;2023-07-29T10:49:58;20.70;89.90
4501;DHT22;2263;54.654;9.410;2023-07-29T10:55:02;20.80;89.70
4501;DHT22;2263;54.654;9.410;2023-07-29T10:57:35;20.80;90.10
4501;DHT22;2263;54.654;9.410;2023-07-29T11:00:04;20.80;89.90
4501;DHT22;2263;54.654;9.410;2023-07-29T11:02:35;20.90;89.70
4501;DHT22;2263;54.654;9.410;2023-07-29T11:05:09;20.90;89.80
4501;DHT22;2263;54.654;9.410;2023-07-29T11:07:47;21.00;89.90
4501;DHT22;2263;54.654;9.410;2023-07-29T11:10:15;21.00;89.90
4501;DHT22;2263;54.654;9.410;2023-07-29T11:12:49;21.00;89.80
4501;DHT22;2263;54.654;9.410;2023-07-29T11:15:23;21.00;89.70
4501;DHT22;2263;54.654;9.410;2023-07-29T11:18:01;21.10;89.90
4501;DHT22;2263;54.654;9.410;2023-07-29T11:20:31;21.10;89.70
4501;DHT22;2263;54.654;9.410;2023-07-29T11:23:00;21.10;89.60
4501;DHT22;2263;54.654;9.410;2023-07-29T11:25:30;21.20;89.50
4501;DHT22;2263;54.654;9.410;2023-07-29T11:27:59;21.20;89.50
4501;DHT22;2263;54.654;9.410;2023-07-29T11:30:32;21.20;90.00
4501;DHT22;2263;54.654;9.410;2023-07-29T11:33:01;21.20;90.10
4501;DHT22;2263;54.654;9.410;2023-07-29T11:35:29;21.20;89.70
4501;DHT22;2263;54.654;9.410;2023-07-29T11:37:57;21.20;89.50
4501;DHT22;2263;54.654;9.410;2023-07-29T11:40:25;21.20;89.40
4501;DHT22;2263;54.654;9.410;2023-07-29T11:42:53;21.20;89.40
4501;DHT22;2263;54.654;9.410;2023-07-29T11:45:22;21.20;89.40
4501;DHT22;2263;54.654;9.410;2023-07-29T11:47:58;21.20;89.40
4501;DHT22;2263;54.654;9.410;2023-07-29T11:50:26;21.30;89.60
4501;DHT22;2263;54.654;9.410;2023-07-29T11:52:54;21.30;89.40
4501;DHT22;2263;54.654;9.410;2023-07-29T11:55:22;21.40;89.40
4501;DHT22;2263;54.654;9.410;2023-07-29T11:57:51;21.40;89.40
4501;DHT22;2263;54.654;9.410;2023-07-29T12:00:21;21.50;90.00
4501;DHT22;2263;54.654;9.410;2023-07-29T12:02:49;21.50;89.30
4501;DHT22;2263;54.654;9.410;2023-07-29T12:05:18;21.50;89.40
4501;DHT22;2263;54.654;9.410;2023-07-29T12:07:48;21.50;89.20
4501;DHT22;2263;54.654;9.410;2023-07-29T12:10:17;21.50;89.00
4501;DHT22;2263;54.654;9.410;2023-07-29T12:12:50;21.50;89.00
4501;DHT22;2263;54.654;9.410;2023-07-29T12:15:25;21.50;89.70
4501;DHT22;2263;54.654;9.410;2023-07-29T12:17:58;21.60;89.10
4501;DHT22;2263;54.654;9.410;2023-07-29T12:20:27;21.60;89.10
4501;DHT22;2263;54.654;9.410;2023-07-29T12:22:58;21.60;89.00
4501;DHT22;2263;54.654;9.410;2023-07-29T12:25:27;21.60;88.90
4501;DHT22;2263;54.654;9.410;2023-07-29T12:27:55;21.70;89.00
4501;DHT22;2263;54.654;9.410;2023-07-29T12:30:24;21.70;88.80
4501;DHT22;2263;54.654;9.410;2023-07-29T12:32:54;21.70;88.60
4501;DHT22;2263;54.654;9.410;2023-07-29T12:35:22;21.70;88.60
4501;DHT22;2263;54.654;9.410;2023-07-29T12:37:59;21.80;88.60
4501;DHT22;2263;54.654;9.410;2023-07-29T12:40:27;21.80;88.50
4501;DHT22;2263;54.654;9.410;2023-07-29T12:42:56;21.90;88.60
4501;DHT22;2263;54.654;9.410;2023-07-29T12:45:23;21.90;88.50
4501;DHT22;2263;54.654;9.410;2023-07-29T12:47:55;22.00;88.60
4501;DHT22;2263;54.654;9.410;2023-07-29T12:50:23;22.00;88.60
4501;DHT22;2263;54.654;9.410;2023-07-29T12:52:51;22.00;88.30
4501;DHT22;2263;54.654;9.410;2023-07-29T12:55:19;22.10;88.40
4501;DHT22;2263;54.654;9.410;2023-07-29T12:57:55;22.10;88.40
4501;DHT22;2263;54.654;9.410;2023-07-29T13:00:36;22.20;87.70
4501;DHT22;2263;54.654;9.410;2023-07-29T13:03:05;22.20;87.80
4501;DHT22;2263;54.654;9.410;2023-07-29T13:05:33;22.20;87.80
4501;DHT22;2263;54.654;9.410;2023-07-29T13:08:01;22.30;87.80
4501;DHT22;2263;54.654;9.410;2023-07-29T13:10:28;22.50;87.70
4501;DHT22;2263;54.654;9.410;2023-07-29T13:12:56;22.50;87.60
4501;DHT22;2263;54.654;9.410;2023-07-29T13:15:23;22.50;87.70
4501;DHT22;2263;54.654;9.410;2023-07-29T13:17:51;22.50;87.70
4501;DHT22;2263;54.654;9.410;2023-07-29T13:20:19;22.40;87.30
4501;DHT22;2263;54.654;9.410;2023-07-29T13:22:46;22.40;87.30
4501;DHT22;2263;54.654;9.410;2023-07-29T13:25:14;22.40;87.50
4501;DHT22;2263;54.654;9.410;2023-07-29T13:27:42;22.40;87.50
4501;DHT22;2263;54.654;9.410;2023-07-29T13:30:09;22.40;87.50
4501;DHT22;2263;54.654;9.410;2023-07-29T13:32:38;22.40;87.30
4501;DHT22;2263;54.654;9.410;2023-07-29T13:35:07;22.60;86.70
4501;DHT22;2263;54.654;9.410;2023-07-29T13:37:38;22.50;86.70
4501;DHT22;2263;54.654;9.410;2023-07-29T13:40:08;22.50;86.90
4501;DHT22;2263;54.654;9.410;2023-07-29T13:42:35;22.50;86.90
4501;DHT22;2263;54.654;9.410;2023-07-29T13:45:03;22.50;87.00
4501;DHT22;2263;54.654;9.410;2023-07-29T13:47:31;22.50;87.00
4501;DHT22;2263;54.654;9.410;2023-07-29T13:50:00;22.50;86.90
4501;DHT22;2263;54.654;9.410;2023-07-29T13:52:27;22.50;86.90
4501;DHT22;2263;54.654;9.410;2023-07-29T13:54:55;22.40;86.70
4501;DHT22;2263;54.654;9.410;2023-07-29T13:57:23;22.50;86.80
4501;DHT22;2263;54.654;9.410;2023-07-29T13:59:53;22.50;86.70
4501;DHT22;2263;54.654;9.410;2023-07-29T14:02:20;22.50;86.80
4501;DHT22;2263;54.654;9.410;2023-07-29T14:04:48;22.50;86.70
4501;DHT22;2263;54.654;9.410;2023-07-29T14:07:16;22.40;86.60
4501;DHT22;2263;54.654;9.410;2023-07-29T14:09:43;22.50;86.70
4501;DHT22;2263;54.654;9.410;2023-07-29T14:12:11;22.40;86.60
4501;DHT22;2263;54.654;9.410;2023-07-29T14:14:41;22.50;86.70
4501;DHT22;2263;54.654;9.410;2023-07-29T14:17:09;22.50;86.70
4501;DHT22;2263;54.654;9.410;2023-07-29T14:19:37;22.50;86.60
4501;DHT22;2263;54.654;9.410;2023-07-29T14:22:05;22.50;86.60
4501;DHT22;2263;54.654;9.410;2023-07-29T14:24:33;22.40;86.50
4501;DHT22;2263;54.654;9.410;2023-07-29T14:27:01;22.50;86.50
4501;DHT22;2263;54.654;9.410;2023-07-29T14:29:30;22.40;86.40
4501;DHT22;2263;54.654;9.410;2023-07-29T14:31:58;22.50;86.50
4501;DHT22;2263;54.654;9.410;2023-07-29T14:34:26;22.50;86.50
4501;DHT22;2263;54.654;9.410;2023-07-29T14:36:53;22.50;86.40
4501;DHT22;2263;54.654;9.410;2023-07-29T14:39:21;22.50;86.20
4501;DHT22;2263;54.654;9.410;2023-07-29T14:41:49;22.70;85.10
4501;DHT22;2263;54.654;9.410;2023-07-29T14:44:16;22.80;85.10
4501;DHT22;2263;54.654;9.410;2023-07-29T14:46:45;22.80;85.60
4501;DHT22;2263;54.654;9.410;2023-07-29T14:49:13;22.90;85.70
4501;DHT22;2263;54.654;9.410;2023-07-29T14:51:40;23.00;84.20
4501;DHT22;2263;54.654;9.410;2023-07-29T14:54:08;23.00;84.30
4501;DHT22;2263;54.654;9.410;2023-07-29T14:56:36;23.10;84.00
4501;DHT22;2263;54.654;9.410;2023-07-29T14:59:04;23.10;83.70
4501;DHT22;2263;54.654;9.410;2023-07-29T15:01:32;23.00;84.10
4501;DHT22;2263;54.654;9.410;2023-07-29T15:03:59;23.10;84.40
4501;DHT22;2263;54.654;9.410;2023-07-29T15:06:27;23.10;84.50
4501;DHT22;2263;54.654;9.410;2023-07-29T15:08:55;23.10;84.50
4501;DHT22;2263;54.654;9.410;2023-07-29T15:11:22;23.20;84.40
4501;DHT22;2263;54.654;9.410;2023-07-29T15:13:50;23.20;84.50
4501;DHT22;2263;54.654;9.410;2023-07-29T15:16:18;23.20;84.40
4501;DHT22;2263;54.654;9.410;2023-07-29T15:18:46;23.20;82.60
4501;DHT22;2263;54.654;9.410;2023-07-29T15:21:13;23.10;82.80
4501;DHT22;2263;54.654;9.410;2023-07-29T15:23:41;23.10;83.60
4501;DHT22;2263;54.654;9.410;2023-07-29T15:26:09;23.20;82.80
4501;DHT22;2263;54.654;9.410;2023-07-29T15:28:37;23.10;83.30
4501;DHT22;2263;54.654;9.410;2023-07-29T15:31:05;23.20;83.50
4501;DHT22;2263;54.654;9.410;2023-07-29T15:33:33;23.10;83.30
4501;DHT22;2263;54.654;9.410;2023-07-29T15:36:04;23.10;82.20
4501;DHT22;2263;54.654;9.410;2023-07-29T15:38:32;23.00;82.30
4501;DHT22;2263;54.654;9.410;2023-07-29T15:40:59;23.00;82.40
4501;DHT22;2263;54.654;9.410;2023-07-29T15:43:27;23.00;81.80
4501;DHT22;2263;54.654;9.410;2023-07-29T15:45:55;23.00;80.90
4501;DHT22;2263;54.654;9.410;2023-07-29T15:48:24;23.00;81.00
4501;DHT22;2263;54.654;9.410;2023-07-29T15:50:53;22.90;81.00
4501;DHT22;2263;54.654;9.410;2023-07-29T15:53:20;22.80;81.50
4501;DHT22;2263;54.654;9.410;2023-07-29T15:55:49;22.80;82.00
4501;DHT22;2263;54.654;9.410;2023-07-29T15:58:17;22.80;82.10
4501;DHT22;2263;54.654;9.410;2023-07-29T16:00:44;22.80;81.80
4501;DHT22;2263;54.654;9.410;2023-07-29T16:03:12;22.80;82.20
4501;DHT22;2263;54.654;9.410;2023-07-29T16:05:40;22.70;82.10
4501;DHT22;2263;54.654;9.410;2023-07-29T16:08:07;22.80;81.90
4501;DHT22;2263;54.654;9.410;2023-07-29T16:10:35;22.80;82.60
4501;DHT22;2263;54.654;9.410;2023-07-29T16:13:03;22.80;81.70
4501;DHT22;2263;54.654;9.410;2023-07-29T16:15:32;22.80;82.10
4501;DHT22;2263;54.654;9.410;2023-07-29T16:18:00;22.70;81.70
4501;DHT22;2263;54.654;9.410;2023-07-29T16:20:28;22.70;81.30
4501;DHT22;2263;54.654;9.410;2023-07-29T16:22:55;22.70;81.60